createdAt,value
2023-05-21T00:01:32.566Z,11.60
2023-05-21T00:04:00.508Z,10.50
2023-05-21T00:06:28.703Z,10.60
2023-05-21T00:08:56.823Z,10.60
2023-05-21T00:11:24.749Z,11.30
2023-05-21T00:13:52.622Z,10.80
2023-05-21T00:16:20.598Z,11.30
2023-05-21T00:18:54.480Z,12.20
2023-05-21T00:21:22.893Z,10.00
2023-05-21T00:23:50.791Z,10.60
2023-05-21T00:26:18.775Z,10.60
2023-05-21T00:28:46.652Z,10.90
2023-05-21T00:31:14.489Z,10.60
2023-05-21T00:33:42.288Z,9.40
2023-05-21T00:36:14.296Z,9.70
2023-05-21T00:38:44.137Z,9.70
2023-05-21T00:41:12.630Z,9.40
2023-05-21T00:43:42.098Z,10.10
2023-05-21T00:46:19.601Z,10.40
2023-05-21T00:48:49.472Z,9.80
2023-05-21T00:51:18.736Z,9.40
2023-05-21T00:53:51.553Z,10.50
2023-05-21T00:56:22.761Z,10.30
2023-05-21T00:58:54.785Z,9.60
2023-05-21T01:01:25.878Z,8.90
2023-05-21T01:03:57.639Z,9.30
2023-05-21T01:06:25.576Z,9.00
2023-05-21T01:08:53.400Z,9.80
2023-05-21T01:11:22.058Z,9.70
2023-05-21T01:13:50.794Z,10.10
2023-05-21T01:16:18.911Z,10.40
2023-05-21T01:18:47.887Z,9.90
2023-05-21T01:21:17.547Z,9.90
2023-05-21T01:23:46.028Z,10.30
2023-05-21T01:26:13.956Z,10.30
2023-05-21T01:28:42.231Z,9.80
2023-05-21T01:31:30.495Z,9.90
2023-05-21T01:34:05.702Z,10.70
2023-05-21T01:36:42.200Z,10.10
2023-05-21T01:39:21.361Z,10.30
2023-05-21T01:41:51.526Z,10.40
2023-05-21T01:44:20.105Z,9.70
2023-05-21T01:46:49.617Z,9.00
2023-05-21T01:49:18.032Z,9.10
2023-05-21T01:51:46.237Z,9.50
2023-05-21T01:54:14.596Z,9.60
2023-05-21T01:56:42.415Z,9.20
2023-05-21T01:59:11.794Z,9.60
2023-05-21T02:01:39.822Z,9.30
2023-05-21T02:04:07.738Z,10.00
2023-05-21T02:06:36.877Z,10.00
2023-05-21T02:09:05.237Z,10.60
2023-05-21T02:11:33.179Z,12.10
2023-05-21T02:14:01.179Z,11.20
2023-05-21T02:16:29.136Z,10.30
2023-05-21T02:18:58.038Z,9.50
2023-05-21T02:21:26.033Z,8.80
2023-05-21T02:23:53.906Z,9.90
2023-05-21T02:26:22.794Z,9.50
2023-05-21T02:28:52.933Z,9.30
2023-05-21T02:31:21.105Z,9.20
2023-05-21T02:33:49.053Z,8.50
2023-05-21T02:36:19.142Z,9.40
2023-05-21T02:38:47.724Z,9.00
2023-05-21T02:41:15.509Z,9.60
2023-05-21T02:43:43.510Z,9.30
2023-05-21T02:46:11.432Z,9.30
2023-05-21T02:48:39.371Z,7.90
2023-05-21T02:51:07.325Z,8.00
2023-05-21T02:53:35.241Z,8.50
2023-05-21T02:56:03.182Z,9.00
2023-05-21T02:58:31.168Z,9.00
2023-05-21T03:00:59.129Z,8.40
2023-05-21T03:03:27.153Z,8.30
2023-05-21T03:05:55.102Z,9.00
2023-05-21T03:08:23.295Z,9.80
2023-05-21T03:10:51.226Z,9.50
2023-05-21T03:13:19.290Z,8.90
2023-05-21T03:15:47.220Z,7.60
2023-05-21T03:18:15.135Z,8.40
2023-05-21T03:20:45.949Z,8.20
2023-05-21T03:23:16.477Z,9.30
2023-05-21T03:25:46.194Z,8.30
2023-05-21T03:28:14.216Z,7.90
2023-05-21T03:30:46.604Z,8.10
2023-05-21T03:33:15.617Z,8.10
2023-05-21T03:35:43.634Z,8.40
2023-05-21T03:38:11.698Z,8.50
2023-05-21T03:40:39.516Z,8.20
2023-05-21T03:43:07.349Z,7.70
2023-05-21T03:45:35.430Z,8.50
2023-05-21T03:48:03.716Z,8.40
2023-05-21T03:50:31.664Z,8.90
2023-05-21T03:52:59.652Z,8.70
2023-05-21T03:55:27.493Z,8.60
2023-05-21T03:57:55.811Z,8.40
2023-05-21T04:00:23.753Z,9.40
2023-05-21T04:02:52.070Z,8.90
2023-05-21T04:05:20.378Z,9.60
2023-05-21T04:07:48.738Z,9.50
2023-05-21T04:10:16.752Z,9.30
2023-05-21T04:12:44.934Z,8.00
2023-05-21T04:15:12.773Z,8.90
2023-05-21T04:17:41.655Z,8.60
2023-05-21T04:20:09.734Z,9.60
2023-05-21T04:22:37.875Z,9.10
2023-05-21T04:25:06.498Z,7.90
2023-05-21T04:27:34.775Z,8.60
2023-05-21T04:30:04.316Z,8.50
2023-05-21T04:32:33.535Z,8.30
2023-05-21T04:35:02.081Z,9.50
2023-05-21T04:37:31.639Z,8.70
2023-05-21T04:40:01.550Z,9.20
2023-05-21T04:42:30.437Z,9.20
2023-05-21T04:44:59.595Z,8.80
2023-05-21T04:47:30.448Z,9.20
2023-05-21T04:49:59.519Z,9.70
2023-05-21T04:52:27.315Z,8.90
2023-05-21T04:54:55.148Z,9.00
2023-05-21T04:57:25.020Z,8.80
2023-05-21T04:59:52.884Z,9.30
2023-05-21T05:02:20.892Z,8.70
2023-05-21T05:04:48.771Z,9.00
2023-05-21T05:07:17.133Z,8.90
2023-05-21T05:09:44.923Z,8.10
2023-05-21T05:12:12.837Z,8.00
2023-05-21T05:14:40.730Z,7.90
2023-05-21T05:17:10.122Z,8.00
2023-05-21T05:19:38.095Z,8.80
2023-05-21T05:22:05.975Z,7.60
2023-05-21T05:24:33.917Z,7.20
2023-05-21T05:27:01.977Z,9.50
2023-05-21T05:29:29.879Z,9.90
2023-05-21T05:31:57.712Z,9.00
2023-05-21T05:34:25.701Z,8.80
2023-05-21T05:36:55.513Z,10.20
2023-05-21T05:39:23.530Z,8.70
2023-05-21T05:41:51.416Z,9.70
2023-05-21T05:44:19.617Z,8.70
2023-05-21T05:46:51.577Z,9.20
2023-05-21T05:49:20.870Z,9.90
2023-05-21T05:51:48.756Z,9.50
2023-05-21T05:54:16.728Z,9.10
2023-05-21T05:56:45.188Z,9.80
2023-05-21T05:59:13.449Z,9.80
2023-05-21T06:01:42.557Z,10.50
2023-05-21T06:04:10.540Z,9.60
2023-05-21T06:06:38.953Z,10.30
2023-05-21T06:09:06.793Z,9.90
2023-05-21T06:11:34.708Z,9.20
2023-05-21T06:14:02.606Z,10.70
2023-05-21T06:16:34.033Z,11.20
2023-05-21T06:19:02.469Z,10.10
2023-05-21T06:21:30.905Z,9.80
2023-05-21T06:23:59.720Z,10.50
2023-05-21T06:26:27.769Z,10.20
2023-05-21T06:28:57.455Z,9.60
2023-05-21T06:31:25.348Z,8.90
2023-05-21T06:33:53.494Z,9.00
2023-05-21T06:36:21.648Z,8.20
2023-05-21T06:38:49.625Z,8.50
2023-05-21T06:41:17.566Z,7.80
2023-05-21T06:43:45.563Z,7.80
2023-05-21T06:46:13.475Z,7.50
2023-05-21T06:48:41.917Z,8.10
2023-05-21T06:51:09.808Z,7.80
2023-05-21T06:53:37.876Z,8.10
2023-05-21T06:56:06.050Z,7.50
2023-05-21T06:58:33.961Z,7.60
2023-05-21T07:01:01.997Z,7.70
2023-05-21T07:03:30.098Z,7.90
2023-05-21T07:05:58.671Z,7.50
2023-05-21T07:08:26.555Z,7.60
2023-05-21T07:10:56.335Z,8.00
2023-05-21T07:13:24.212Z,7.70
2023-05-21T07:15:52.193Z,6.70
2023-05-21T07:18:20.133Z,7.60
2023-05-21T07:20:48.159Z,8.10
2023-05-21T07:23:16.205Z,7.30
2023-05-21T07:25:44.137Z,7.80
2023-05-21T07:28:12.013Z,7.60
2023-05-21T07:30:39.839Z,8.10
2023-05-21T07:33:08.050Z,8.20
2023-05-21T07:35:36.482Z,8.60
2023-05-21T07:38:05.006Z,8.30
2023-05-21T07:40:32.983Z,8.70
2023-05-21T07:43:01.002Z,7.80
2023-05-21T07:45:29.061Z,7.70
2023-05-21T07:47:57.175Z,7.90
2023-05-21T07:50:26.354Z,7.90
2023-05-21T07:52:54.318Z,8.20
2023-05-21T07:55:22.395Z,8.30
2023-05-21T07:57:52.386Z,8.60
2023-05-21T08:00:24.052Z,7.50
2023-05-21T08:02:52.650Z,8.30
2023-05-21T08:05:21.698Z,8.10
2023-05-21T08:07:49.627Z,8.30
2023-05-21T08:10:19.388Z,8.30
2023-05-21T08:12:47.594Z,8.60
2023-05-21T08:15:15.577Z,8.40
2023-05-21T08:17:43.844Z,8.40
2023-05-21T08:20:14.485Z,8.00
2023-05-21T08:22:43.806Z,8.30
2023-05-21T08:25:11.797Z,8.50
2023-05-21T08:27:39.720Z,8.90
2023-05-21T08:30:11.555Z,9.10
2023-05-21T08:32:42.019Z,8.80
2023-05-21T08:35:10.194Z,8.90
2023-05-21T08:37:38.299Z,8.80
2023-05-21T08:40:06.741Z,9.00
2023-05-21T08:42:47.266Z,8.30
2023-05-21T08:45:20.823Z,8.00
2023-05-21T08:47:57.067Z,7.90
2023-05-21T08:50:27.879Z,7.60
2023-05-21T08:52:55.719Z,8.40
2023-05-21T08:55:24.041Z,8.70
2023-05-21T08:57:57.602Z,8.30
2023-05-21T09:00:28.680Z,8.00
2023-05-21T09:02:57.420Z,8.10
2023-05-21T09:05:27.114Z,8.30
2023-05-21T09:08:13.853Z,8.30
2023-05-21T09:10:49.149Z,8.10
2023-05-21T09:13:18.725Z,7.60
2023-05-21T09:15:47.170Z,8.40
2023-05-21T09:18:18.395Z,7.90
2023-05-21T09:20:46.380Z,8.40
2023-05-21T09:23:19.861Z,7.90
2023-05-21T09:25:49.140Z,7.80
2023-05-21T09:28:18.412Z,7.90
2023-05-21T09:30:54.649Z,8.10
2023-05-21T09:33:26.832Z,8.20
2023-05-21T09:35:55.360Z,7.80
2023-05-21T09:38:24.061Z,7.40
2023-05-21T09:40:55.825Z,7.50
2023-05-21T09:43:23.830Z,7.60
2023-05-21T09:45:56.914Z,8.10
2023-05-21T09:48:43.783Z,7.90
2023-05-21T09:51:13.424Z,7.60
2023-05-21T09:53:55.764Z,8.50
2023-05-21T09:56:25.482Z,7.50
2023-05-21T09:59:02.821Z,8.10
2023-05-21T10:01:32.230Z,7.10
2023-05-21T10:04:02.386Z,7.80
2023-05-21T10:06:34.997Z,7.10
2023-05-21T10:09:11.613Z,7.50
2023-05-21T10:11:44.048Z,7.90
2023-05-21T10:14:17.326Z,7.70
2023-05-21T10:16:47.695Z,7.90
2023-05-21T10:19:20.199Z,7.70
2023-05-21T10:21:50.410Z,9.50
2023-05-21T10:24:21.399Z,8.50
2023-05-21T10:26:50.947Z,8.00
2023-05-21T10:29:20.793Z,7.70
2023-05-21T10:31:51.361Z,8.00
2023-05-21T10:34:21.436Z,7.80
2023-05-21T10:36:50.494Z,8.40
2023-05-21T10:39:20.839Z,8.40
2023-05-21T10:42:16.136Z,8.50
2023-05-21T10:45:08.589Z,7.90
2023-05-21T10:47:58.842Z,7.90
2023-05-21T10:50:29.405Z,8.30
2023-05-21T10:53:17.024Z,8.10
2023-05-21T10:56:03.602Z,8.00
2023-05-21T10:58:40.805Z,7.50
2023-05-21T11:01:09.636Z,8.20
2023-05-21T11:03:38.192Z,8.10
2023-05-21T11:06:06.616Z,8.50
2023-05-21T11:08:38.986Z,8.20
2023-05-21T11:11:07.024Z,7.50
2023-05-21T11:13:51.479Z,8.60
2023-05-21T11:16:21.774Z,8.50
2023-05-21T11:18:49.986Z,8.00
2023-05-21T11:21:21.274Z,8.60
2023-05-21T11:23:58.801Z,8.00
2023-05-21T11:26:28.560Z,8.10
2023-05-21T11:29:05.356Z,7.60
2023-05-21T11:31:38.747Z,8.00
2023-05-21T11:34:21.893Z,7.80
2023-05-21T11:36:50.213Z,8.40
2023-05-21T11:39:23.963Z,7.50
2023-05-21T11:42:04.440Z,7.50
2023-05-21T11:44:47.855Z,7.50
2023-05-21T11:47:18.216Z,8.50
2023-05-21T11:49:46.905Z,8.00
2023-05-21T11:52:14.962Z,8.10
2023-05-21T11:54:50.626Z,8.20
2023-05-21T11:57:19.594Z,8.10
2023-05-21T11:59:51.673Z,7.80
2023-05-21T12:02:21.932Z,8.10
2023-05-21T12:04:51.534Z,8.60
2023-05-21T12:07:20.485Z,8.50
2023-05-21T12:09:50.539Z,8.50
2023-05-21T12:12:21.544Z,8.60
2023-05-21T12:14:51.392Z,8.10
2023-05-21T12:17:24.006Z,9.10
2023-05-21T12:19:53.964Z,8.70
2023-05-21T12:22:23.564Z,9.00
2023-05-21T12:24:53.731Z,8.40
2023-05-21T12:27:22.894Z,8.80
2023-05-21T12:29:52.232Z,8.30
2023-05-21T12:32:21.535Z,9.10
2023-05-21T12:34:52.637Z,9.20
2023-05-21T12:37:22.683Z,8.70
2023-05-21T12:39:52.443Z,8.90
2023-05-21T12:42:27.267Z,8.70
2023-05-21T12:44:55.772Z,8.50
2023-05-21T12:47:26.698Z,9.10
2023-05-21T12:49:58.156Z,8.90
2023-05-21T12:52:29.530Z,9.20
2023-05-21T12:54:58.646Z,8.80
2023-05-21T12:57:28.616Z,8.70
2023-05-21T12:59:58.264Z,9.30
2023-05-21T13:02:47.892Z,9.00
2023-05-21T13:05:18.248Z,9.40
2023-05-21T13:07:47.659Z,8.70
2023-05-21T13:10:18.907Z,8.70
2023-05-21T13:12:47.415Z,9.10
2023-05-21T13:15:15.737Z,9.20
2023-05-21T13:17:43.984Z,8.20
2023-05-21T13:20:15.378Z,8.50
2023-05-21T13:22:48.053Z,9.50
2023-05-21T13:25:29.931Z,9.00
2023-05-21T13:28:01.246Z,9.30
2023-05-21T13:30:29.256Z,8.70
2023-05-21T13:32:57.494Z,9.50
2023-05-21T13:35:27.629Z,8.60
2023-05-21T13:37:56.239Z,8.60
2023-05-21T13:40:24.141Z,8.70
2023-05-21T13:42:52.012Z,9.00
2023-05-21T13:45:21.357Z,8.60
2023-05-21T13:47:49.410Z,8.60
2023-05-21T13:50:17.458Z,8.70
2023-05-21T13:52:46.165Z,8.80
2023-05-21T13:55:16.202Z,9.20
2023-05-21T13:57:44.583Z,8.90
2023-05-21T14:00:15.590Z,7.90
2023-05-21T14:02:44.855Z,7.60
2023-05-21T14:05:14.012Z,8.60
2023-05-21T14:07:42.172Z,8.60
2023-05-21T14:10:11.296Z,8.40
2023-05-21T14:12:40.625Z,8.20
2023-05-21T14:15:09.413Z,7.70
2023-05-21T14:17:40.638Z,8.90
2023-05-21T14:20:09.611Z,9.90
2023-05-21T14:22:38.047Z,8.50
2023-05-21T14:25:06.330Z,9.30
2023-05-21T14:27:34.257Z,8.10
2023-05-21T14:30:02.411Z,7.80
2023-05-21T14:32:30.784Z,8.00
2023-05-21T14:34:59.496Z,7.30
2023-05-21T14:37:27.402Z,7.30
2023-05-21T14:39:55.297Z,7.40
2023-05-21T14:42:23.480Z,7.50
2023-05-21T14:44:52.367Z,6.90
2023-05-21T14:47:21.029Z,6.80
2023-05-21T14:49:51.394Z,7.70
2023-05-21T14:52:19.563Z,7.00
2023-05-21T14:54:47.302Z,7.30
2023-05-21T14:57:15.305Z,7.40
2023-05-21T14:59:43.313Z,6.80
2023-05-21T15:02:11.307Z,7.40
2023-05-21T15:04:39.296Z,7.10
2023-05-21T15:07:07.262Z,7.20
2023-05-21T15:09:35.247Z,6.90
2023-05-21T15:12:03.242Z,7.70
2023-05-21T15:14:31.096Z,7.20
2023-05-21T15:16:58.991Z,8.20
2023-05-21T15:19:26.890Z,6.80
2023-05-21T15:21:54.985Z,6.30
2023-05-21T15:24:22.982Z,6.60
2023-05-21T15:26:52.698Z,6.20
2023-05-21T15:29:20.892Z,7.00
2023-05-21T15:31:48.872Z,6.90
2023-05-21T15:34:18.049Z,7.30
2023-05-21T15:36:46.197Z,7.40
2023-05-21T15:39:14.096Z,7.10
2023-05-21T15:41:42.132Z,7.10
2023-05-21T15:44:09.975Z,7.20
2023-05-21T15:46:37.850Z,7.50
2023-05-21T15:49:06.021Z,8.20
2023-05-21T15:51:34.011Z,7.70
2023-05-21T15:54:02.011Z,7.80
2023-05-21T15:56:30.026Z,7.50
2023-05-21T15:59:01.288Z,8.60
2023-05-21T16:01:29.555Z,8.80
2023-05-21T16:03:57.527Z,8.40
2023-05-21T16:06:25.939Z,7.80
2023-05-21T16:08:53.864Z,7.60
2023-05-21T16:11:22.417Z,8.10
2023-05-21T16:13:50.439Z,7.60
2023-05-21T16:16:18.472Z,8.40
2023-05-21T16:18:46.637Z,9.20
2023-05-21T16:21:15.086Z,10.00
2023-05-21T16:23:46.013Z,10.70
2023-05-21T16:26:13.972Z,9.20
2023-05-21T16:28:42.240Z,9.40
2023-05-21T16:31:11.436Z,11.10
2023-05-21T16:33:39.608Z,11.90
2023-05-21T16:36:07.662Z,12.60
2023-05-21T16:38:35.899Z,11.20
2023-05-21T16:41:03.794Z,11.20
2023-05-21T16:43:31.853Z,10.80
2023-05-21T16:45:59.988Z,9.40
2023-05-21T16:48:27.811Z,10.90
2023-05-21T16:50:55.794Z,8.40
2023-05-21T16:53:23.848Z,9.60
2023-05-21T16:55:51.763Z,7.80
2023-05-21T16:58:19.870Z,7.80
2023-05-21T17:00:48.071Z,8.40
2023-05-21T17:03:16.509Z,9.20
2023-05-21T17:05:44.430Z,9.10
2023-05-21T17:08:12.498Z,9.10
2023-05-21T17:10:41.103Z,9.20
2023-05-21T17:13:21.735Z,9.40
2023-05-21T17:15:51.430Z,9.50
2023-05-21T17:18:19.708Z,8.90
2023-05-21T17:20:47.598Z,9.30
2023-05-21T17:23:15.712Z,9.70
2023-05-21T17:25:43.901Z,9.50
2023-05-21T17:28:11.725Z,10.50
2023-05-21T17:30:39.660Z,10.70
2023-05-21T17:33:07.762Z,9.80
2023-05-21T17:35:36.037Z,9.60
2023-05-21T17:38:04.241Z,9.80
2023-05-21T17:40:32.087Z,8.60
2023-05-21T17:42:59.998Z,8.50
2023-05-21T17:45:27.802Z,9.30
2023-05-21T17:47:59.640Z,8.50
2023-05-21T17:50:28.351Z,9.60
2023-05-21T17:52:56.439Z,9.80
2023-05-21T17:55:24.347Z,8.70
2023-05-21T17:57:52.559Z,9.70
2023-05-21T18:00:20.747Z,8.70
2023-05-21T18:02:48.756Z,8.40
2023-05-21T18:05:17.335Z,9.00
2023-05-21T18:07:45.534Z,9.20
2023-05-21T18:10:15.345Z,8.10
2023-05-21T18:12:46.216Z,8.50
2023-05-21T18:15:15.297Z,8.50
2023-05-21T18:17:43.205Z,8.50
2023-05-21T18:20:12.015Z,8.20
2023-05-21T18:22:40.363Z,8.60
2023-05-21T18:25:09.236Z,8.40
2023-05-21T18:27:37.220Z,7.40
2023-05-21T18:30:06.960Z,8.40
2023-05-21T18:32:38.532Z,7.60
2023-05-21T18:35:11.398Z,7.20
2023-05-21T18:37:42.158Z,7.90
2023-05-21T18:40:11.954Z,6.90
2023-05-21T18:42:40.236Z,6.60
2023-05-21T18:45:09.232Z,6.30
2023-05-21T18:47:39.435Z,6.70
2023-05-21T18:50:13.480Z,6.60
2023-05-21T18:52:41.938Z,7.10
2023-05-21T18:55:10.374Z,7.50
2023-05-21T18:57:38.326Z,9.20
2023-05-21T19:00:09.612Z,7.60
2023-05-21T19:02:37.777Z,8.60
2023-05-21T19:05:07.159Z,8.40
2023-05-21T19:07:36.262Z,8.00
2023-05-21T19:10:05.118Z,7.90
2023-05-21T19:12:34.086Z,7.50
2023-05-21T19:15:02.807Z,6.00
2023-05-21T19:17:30.829Z,6.30
2023-05-21T19:19:58.902Z,6.80
2023-05-21T19:22:28.193Z,6.30
2023-05-21T19:24:56.023Z,6.60
2023-05-21T19:27:24.163Z,6.80
2023-05-21T19:29:52.746Z,7.00
2023-05-21T19:32:23.614Z,7.10
2023-05-21T19:34:52.288Z,8.60
2023-05-21T19:37:20.224Z,7.60
2023-05-21T19:39:50.453Z,8.10
2023-05-21T19:42:21.411Z,8.20
2023-05-21T19:44:49.587Z,8.50
2023-05-21T19:47:17.598Z,8.10
2023-05-21T19:49:45.793Z,7.90
2023-05-21T19:52:14.029Z,7.60
2023-05-21T19:54:41.902Z,7.90
2023-05-21T19:57:12.364Z,8.50
2023-05-21T19:59:40.922Z,8.00
2023-05-21T20:02:13.328Z,8.20
2023-05-21T20:04:41.162Z,7.90
2023-05-21T20:07:10.876Z,7.90
2023-05-21T20:09:39.567Z,8.30
2023-05-21T20:12:08.454Z,7.60
2023-05-21T20:14:36.287Z,7.10
2023-05-21T20:17:07.495Z,7.50
2023-05-21T20:19:35.939Z,7.90
2023-05-21T20:22:04.890Z,7.60
2023-05-21T20:24:32.792Z,7.80
2023-05-21T20:27:01.657Z,7.80
2023-05-21T20:29:29.948Z,7.90
2023-05-21T20:31:58.190Z,7.60
2023-05-21T20:34:27.515Z,8.90
2023-05-21T20:36:58.818Z,7.90
2023-05-21T20:39:29.925Z,8.10
2023-05-21T20:41:58.445Z,8.70
2023-05-21T20:44:27.676Z,8.60
2023-05-21T20:46:55.571Z,9.10
2023-05-21T20:49:24.849Z,8.80
2023-05-21T20:51:53.022Z,9.60
2023-05-21T20:54:22.487Z,8.40
2023-05-21T20:56:50.904Z,9.10
2023-05-21T20:59:18.881Z,9.20
2023-05-21T21:01:46.850Z,9.50
2023-05-21T21:04:14.729Z,9.50
2023-05-21T21:06:43.011Z,9.50
2023-05-21T21:09:11.001Z,10.00
2023-05-21T21:11:39.000Z,9.70
2023-05-21T21:14:09.327Z,10.10
2023-05-21T21:16:37.123Z,9.90
2023-05-21T21:19:05.108Z,10.10
2023-05-21T21:21:33.360Z,10.40
2023-05-21T21:24:01.274Z,10.60
2023-05-21T21:26:29.132Z,9.90
2023-05-21T21:28:57.070Z,9.10
2023-05-21T21:31:25.243Z,9.80
2023-05-21T21:33:53.557Z,9.10
2023-05-21T21:36:21.545Z,8.70
2023-05-21T21:38:49.338Z,9.50
2023-05-21T21:41:17.245Z,9.10
2023-05-21T21:43:45.468Z,9.60
2023-05-21T21:46:13.502Z,8.90
2023-05-21T21:48:41.527Z,8.50
2023-05-21T21:51:09.655Z,8.00
2023-05-21T21:53:37.693Z,8.40
2023-05-21T21:56:05.849Z,8.60
2023-05-21T21:58:33.811Z,7.70
2023-05-21T22:01:01.938Z,7.50
2023-05-21T22:03:32.305Z,7.40
2023-05-21T22:06:00.674Z,7.30
2023-05-21T22:08:28.875Z,6.90
2023-05-21T22:10:58.192Z,7.40
2023-05-21T22:13:29.201Z,7.10
2023-05-21T22:15:58.123Z,7.00
2023-05-21T22:18:39.613Z,7.00
2023-05-21T22:21:10.636Z,7.40
2023-05-21T22:23:39.884Z,7.90
2023-05-21T22:26:07.791Z,7.30
2023-05-21T22:28:35.999Z,7.60
2023-05-21T22:31:04.016Z,7.70
2023-05-21T22:33:34.981Z,7.80
2023-05-21T22:36:03.021Z,7.40
2023-05-21T22:38:31.137Z,7.30
2023-05-21T22:40:59.100Z,7.20
2023-05-21T22:43:27.452Z,7.60
2023-05-21T22:45:55.432Z,7.50
2023-05-21T22:48:23.474Z,6.30
2023-05-21T22:50:53.621Z,6.60
2023-05-21T22:53:21.808Z,6.40
2023-05-21T22:55:50.416Z,6.30
2023-05-21T22:58:18.859Z,6.50
2023-05-21T23:00:48.031Z,6.60
2023-05-21T23:03:16.941Z,5.70
2023-05-21T23:05:45.671Z,6.10
2023-05-21T23:08:14.141Z,6.20
2023-05-21T23:10:42.085Z,6.60
2023-05-21T23:13:10.304Z,6.20
2023-05-21T23:15:39.065Z,7.00
2023-05-21T23:18:08.736Z,6.70
2023-05-21T23:20:37.461Z,6.40
2023-05-21T23:23:06.156Z,6.50
2023-05-21T23:25:35.056Z,6.60
2023-05-21T23:28:04.018Z,6.20
2023-05-21T23:30:31.851Z,6.80
2023-05-21T23:32:59.893Z,6.50
2023-05-21T23:35:27.977Z,6.60
2023-05-21T23:37:56.008Z,6.50
2023-05-21T23:40:23.884Z,6.00
2023-05-21T23:42:51.829Z,6.70
2023-05-21T23:45:19.866Z,7.40
2023-05-21T23:47:47.739Z,7.40
2023-05-21T23:50:15.944Z,7.60
2023-05-21T23:52:44.235Z,8.30
2023-05-21T23:55:14.615Z,7.60
2023-05-21T23:57:42.514Z,6.90
